createdAt,value
2022-12-29T00:00:10.833Z,31.83
2022-12-29T00:02:37.444Z,31.33
2022-12-29T00:05:04.251Z,32.22
2022-12-29T00:07:30.698Z,32.55
2022-12-29T00:09:57.069Z,31.35
2022-12-29T00:12:23.462Z,31.70
2022-12-29T00:15:08.531Z,31.20
2022-12-29T00:17:35.011Z,29.83
2022-12-29T00:20:19.925Z,31.08
2022-12-29T00:23:04.593Z,29.55
2022-12-29T00:25:49.753Z,29.92
2022-12-29T00:28:34.500Z,30.55
2022-12-29T00:31:20.780Z,29.83
2022-12-29T00:34:05.817Z,30.92
2022-12-29T00:36:39.834Z,28.65
2022-12-29T00:39:37.545Z,29.02
2022-12-29T00:42:26.829Z,28.40
2022-12-29T00:44:53.389Z,29.73
2022-12-29T00:47:19.817Z,29.70
2022-12-29T00:49:46.288Z,28.00
2022-12-29T00:52:13.872Z,29.73
2022-12-29T00:54:41.575Z,28.90
2022-12-29T00:57:10.115Z,29.83
2022-12-29T00:59:37.841Z,28.52
2022-12-29T01:02:04.641Z,29.00
2022-12-29T01:04:31.235Z,30.08
2022-12-29T01:06:57.887Z,27.75
2022-12-29T01:09:43.669Z,29.10
2022-12-29T01:12:11.096Z,28.08
2022-12-29T01:14:39.468Z,26.10
2022-12-29T01:17:06.648Z,26.73
2022-12-29T01:19:33.839Z,26.83
2022-12-29T01:22:00.468Z,25.63
2022-12-29T01:24:27.313Z,25.58
2022-12-29T01:26:55.351Z,26.10
2022-12-29T01:29:22.676Z,27.25
2022-12-29T01:31:51.107Z,26.33
2022-12-29T01:34:18.383Z,27.17
2022-12-29T01:36:44.906Z,29.27
2022-12-29T01:39:11.463Z,30.13
2022-12-29T01:41:37.966Z,29.15
2022-12-29T01:44:47.685Z,31.08
2022-12-29T01:47:29.414Z,31.85
2022-12-29T01:49:58.812Z,31.17
2022-12-29T01:52:29.193Z,32.10
2022-12-29T01:54:57.412Z,30.83
2022-12-29T01:57:32.429Z,31.35
2022-12-29T02:00:09.369Z,33.10
2022-12-29T02:02:37.052Z,32.00
2022-12-29T02:05:30.141Z,31.40
2022-12-29T02:07:56.705Z,31.55
2022-12-29T02:10:26.777Z,32.28
2022-12-29T02:12:53.800Z,32.22
2022-12-29T02:15:36.991Z,31.90
2022-12-29T02:18:15.648Z,33.30
2022-12-29T02:21:11.574Z,32.40
2022-12-29T02:23:52.495Z,33.47
2022-12-29T02:26:52.716Z,32.33
2022-12-29T02:29:32.829Z,32.63
2022-12-29T02:32:04.055Z,31.85
2022-12-29T02:34:33.433Z,30.80
2022-12-29T02:37:11.403Z,31.23
2022-12-29T02:40:13.012Z,30.52
2022-12-29T02:43:04.982Z,28.00
2022-12-29T02:45:43.498Z,27.75
2022-12-29T02:48:23.528Z,27.42
2022-12-29T02:51:02.936Z,28.08
2022-12-29T02:53:51.423Z,28.63
2022-12-29T02:56:18.488Z,27.17
2022-12-29T02:58:45.066Z,25.92
2022-12-29T03:01:38.027Z,26.15
2022-12-29T03:04:32.621Z,25.88
2022-12-29T03:07:10.301Z,25.13
2022-12-29T03:10:10.878Z,25.15
2022-12-29T03:13:05.939Z,22.58
2022-12-29T03:16:00.928Z,22.65
2022-12-29T03:18:40.844Z,22.05
2022-12-29T03:21:18.751Z,22.77
2022-12-29T03:23:51.009Z,21.63
2022-12-29T03:26:20.950Z,20.98
2022-12-29T03:28:53.625Z,21.10
2022-12-29T03:31:23.777Z,20.45
2022-12-29T03:36:29.266Z,18.80
2022-12-29T03:39:06.978Z,17.98
2022-12-29T03:41:35.654Z,18.10
2022-12-29T03:44:02.229Z,16.75
2022-12-29T03:46:28.722Z,17.30
2022-12-29T03:48:55.182Z,17.15
2022-12-29T03:51:22.086Z,16.55
2022-12-29T03:53:48.499Z,16.35
2022-12-29T03:56:14.947Z,14.68
2022-12-29T03:58:41.367Z,14.65
2022-12-29T04:01:08.077Z,14.85
2022-12-29T04:03:35.109Z,13.82
2022-12-29T04:06:01.644Z,12.95
2022-12-29T04:08:28.036Z,13.13
2022-12-29T04:10:54.448Z,12.70
2022-12-29T04:13:20.982Z,12.32
2022-12-29T04:15:47.561Z,11.60
2022-12-29T04:18:14.305Z,11.40
2022-12-29T04:20:59.680Z,11.68
2022-12-29T04:23:26.647Z,10.88
2022-12-29T04:25:53.135Z,11.43
2022-12-29T04:28:19.986Z,10.40
2022-12-29T04:30:47.429Z,10.93
2022-12-29T04:33:14.223Z,9.93
2022-12-29T04:35:40.838Z,10.32
2022-12-29T04:38:07.352Z,9.73
2022-12-29T04:40:34.018Z,10.30
2022-12-29T04:43:00.493Z,10.23
2022-12-29T04:45:27.054Z,10.32
2022-12-29T04:47:53.579Z,10.23
2022-12-29T04:50:19.998Z,13.02
2022-12-29T04:52:46.508Z,15.95
2022-12-29T04:55:12.945Z,17.45
2022-12-29T04:57:39.404Z,17.73
2022-12-29T05:00:07.116Z,18.83
2022-12-29T05:02:34.276Z,18.52
2022-12-29T05:05:00.835Z,18.40
2022-12-29T05:07:27.265Z,18.92
2022-12-29T05:09:53.719Z,18.80
2022-12-29T05:12:20.203Z,19.13
2022-12-29T05:14:46.604Z,18.95
2022-12-29T05:17:13.068Z,17.67
2022-12-29T05:19:39.542Z,18.58
2022-12-29T05:22:05.985Z,18.20
2022-12-29T05:24:32.436Z,18.85
2022-12-29T05:26:59.971Z,19.05
2022-12-29T05:29:26.387Z,19.42
2022-12-29T05:31:52.944Z,19.20
2022-12-29T05:34:19.475Z,19.52
2022-12-29T05:36:45.873Z,20.15
2022-12-29T05:39:12.348Z,19.60
2022-12-29T05:41:38.756Z,19.08
2022-12-29T05:44:05.277Z,19.50
2022-12-29T05:46:31.804Z,19.77
2022-12-29T05:48:58.664Z,20.35
2022-12-29T05:51:25.151Z,21.60
2022-12-29T05:53:51.910Z,21.55
2022-12-29T05:56:18.437Z,21.73
2022-12-29T05:58:44.833Z,21.02
2022-12-29T06:01:11.287Z,20.75
2022-12-29T06:03:40.670Z,20.35
2022-12-29T06:06:09.507Z,19.90
2022-12-29T06:08:36.077Z,19.90
2022-12-29T06:11:02.646Z,18.83
2022-12-29T06:13:29.056Z,20.10
2022-12-29T06:15:55.651Z,19.80
2022-12-29T06:18:22.194Z,19.25
2022-12-29T06:20:48.961Z,18.80
2022-12-29T06:23:15.715Z,18.55
2022-12-29T06:25:42.097Z,18.10
2022-12-29T06:28:11.751Z,17.45
2022-12-29T06:30:38.963Z,17.67
2022-12-29T06:33:05.394Z,16.42
2022-12-29T06:35:32.073Z,15.95
2022-12-29T06:37:58.559Z,15.40
2022-12-29T06:40:25.020Z,15.35
2022-12-29T06:42:51.479Z,14.57
2022-12-29T06:45:17.844Z,14.65
2022-12-29T06:47:44.235Z,14.35
2022-12-29T06:50:10.675Z,14.23
2022-12-29T06:52:37.216Z,14.23
2022-12-29T06:55:03.931Z,13.98
2022-12-29T06:57:30.466Z,15.02
2022-12-29T06:59:57.012Z,13.93
2022-12-29T07:02:26.228Z,13.60
2022-12-29T07:04:53.406Z,14.00
2022-12-29T07:07:20.916Z,14.35
2022-12-29T07:09:47.650Z,14.18
2022-12-29T07:12:14.133Z,13.93
2022-12-29T07:14:43.303Z,13.45
2022-12-29T07:17:10.206Z,14.43
2022-12-29T07:19:36.953Z,12.70
2022-12-29T07:22:03.667Z,13.48
2022-12-29T07:24:30.790Z,13.38
2022-12-29T07:26:57.428Z,13.55
2022-12-29T07:29:24.010Z,12.95
2022-12-29T07:31:50.502Z,12.93
2022-12-29T07:34:16.882Z,15.45
2022-12-29T07:36:43.637Z,12.52
2022-12-29T07:39:10.092Z,12.80
2022-12-29T07:41:36.600Z,13.57
2022-12-29T07:44:03.039Z,12.50
2022-12-29T07:46:56.060Z,12.90
2022-12-29T07:49:15.830Z,14.20
2022-12-29T07:51:42.215Z,12.55
2022-12-29T07:54:10.284Z,12.63
2022-12-29T07:56:37.057Z,12.30
2022-12-29T07:59:03.445Z,12.63
2022-12-29T08:01:29.932Z,12.90
2022-12-29T08:03:57.756Z,12.18
2022-12-29T08:06:24.508Z,12.35
2022-12-29T08:08:50.989Z,11.63
2022-12-29T08:11:17.383Z,11.70
2022-12-29T08:13:43.893Z,11.38
2022-12-29T08:16:10.417Z,11.70
2022-12-29T08:18:37.047Z,11.85
2022-12-29T08:21:05.339Z,10.80
2022-12-29T08:23:32.488Z,10.40
2022-12-29T08:26:04.095Z,10.63
2022-12-29T08:28:31.327Z,10.70
2022-12-29T08:31:03.195Z,10.50
2022-12-29T08:33:30.087Z,11.07
2022-12-29T08:36:04.019Z,17.05
2022-12-29T08:38:30.748Z,12.82
2022-12-29T08:40:57.986Z,11.43
2022-12-29T08:43:25.241Z,10.82
2022-12-29T08:45:52.106Z,11.23
2022-12-29T08:48:20.783Z,10.23
2022-12-29T08:50:47.969Z,10.80
2022-12-29T08:53:14.468Z,11.52
2022-12-29T08:55:41.264Z,11.57
2022-12-29T08:58:07.698Z,14.82
2022-12-29T09:00:34.086Z,11.23
2022-12-29T09:03:00.636Z,9.98
2022-12-29T09:05:27.168Z,10.40
2022-12-29T09:07:53.629Z,11.68
2022-12-29T09:10:20.252Z,10.45
2022-12-29T09:12:46.779Z,10.02
2022-12-29T09:15:13.771Z,11.05
2022-12-29T09:17:46.500Z,10.60
2022-12-29T09:20:15.080Z,10.07
2022-12-29T09:22:41.647Z,14.43
2022-12-29T09:25:09.348Z,11.15
2022-12-29T09:27:37.067Z,10.02
2022-12-29T09:30:07.346Z,10.05
2022-12-29T09:35:05.042Z,11.68
2022-12-29T09:37:31.437Z,10.57
2022-12-29T09:39:57.856Z,10.85
2022-12-29T09:42:55.226Z,11.80
2022-12-29T09:45:31.868Z,13.43
2022-12-29T09:47:58.443Z,11.38
2022-12-29T09:50:33.820Z,13.18
2022-12-29T09:53:10.640Z,11.35
2022-12-29T09:55:46.007Z,11.23
2022-12-29T09:58:37.297Z,12.25
2022-12-29T10:01:06.189Z,11.25
2022-12-29T10:03:45.748Z,10.95
2022-12-29T10:06:22.545Z,18.20
2022-12-29T10:09:01.271Z,10.85
2022-12-29T10:12:05.572Z,13.10
2022-12-29T10:14:55.533Z,16.67
2022-12-29T10:17:31.248Z,13.93
2022-12-29T10:20:29.505Z,16.42
2022-12-29T10:23:01.806Z,14.52
2022-12-29T10:25:33.398Z,10.82
2022-12-29T10:28:05.073Z,11.27
2022-12-29T10:30:35.446Z,11.63
2022-12-29T10:33:12.999Z,14.80
2022-12-29T10:35:41.549Z,10.93
2022-12-29T10:38:25.982Z,14.25
2022-12-29T10:41:04.239Z,14.70
2022-12-29T10:43:37.051Z,13.80
2022-12-29T10:46:07.815Z,15.57
2022-12-29T10:48:36.011Z,15.45
2022-12-29T10:51:05.368Z,12.48
2022-12-29T10:53:40.628Z,20.20
2022-12-29T10:56:35.837Z,14.50
2022-12-29T10:59:13.744Z,16.27
2022-12-29T11:02:07.913Z,16.00
2022-12-29T11:05:05.207Z,11.57
2022-12-29T11:07:32.286Z,14.77
2022-12-29T11:10:37.108Z,16.15
2022-12-29T11:13:12.598Z,14.98
2022-12-29T11:15:44.187Z,11.27
2022-12-29T11:18:33.770Z,13.43
2022-12-29T11:21:03.719Z,15.45
2022-12-29T11:23:41.903Z,11.05
2022-12-29T11:26:27.663Z,12.85
2022-12-29T11:29:21.026Z,11.73
2022-12-29T11:31:59.880Z,11.13
2022-12-29T11:34:37.108Z,13.20
2022-12-29T11:37:07.402Z,16.40
2022-12-29T11:39:40.307Z,15.07
2022-12-29T11:42:13.321Z,13.82
2022-12-29T11:44:45.225Z,22.70
2022-12-29T11:47:24.305Z,11.75
2022-12-29T11:49:56.540Z,11.80
2022-12-29T11:52:26.350Z,18.27
2022-12-29T11:54:55.977Z,12.23
2022-12-29T11:57:23.951Z,13.48
2022-12-29T11:59:51.508Z,14.35
2022-12-29T12:02:42.787Z,13.23
2022-12-29T12:05:15.869Z,13.30
2022-12-29T12:07:46.720Z,11.40
2022-12-29T12:10:24.939Z,12.25
2022-12-29T12:12:59.500Z,12.13
2022-12-29T12:15:32.673Z,13.73
2022-12-29T12:18:35.388Z,12.15
2022-12-29T12:21:11.629Z,17.58
2022-12-29T12:23:45.355Z,13.80
2022-12-29T12:26:17.027Z,11.45
2022-12-29T12:28:52.251Z,14.90
2022-12-29T12:31:28.877Z,20.48
2022-12-29T12:34:01.386Z,15.07
2022-12-29T12:37:00.265Z,16.48
2022-12-29T12:39:28.127Z,11.45
2022-12-29T12:42:23.497Z,18.45
2022-12-29T12:45:23.978Z,16.38
2022-12-29T12:48:04.596Z,13.77
2022-12-29T12:50:50.048Z,19.40
2022-12-29T12:53:37.471Z,15.98
2022-12-29T12:56:25.491Z,15.25
2022-12-29T12:59:10.053Z,16.33
2022-12-29T13:01:58.396Z,17.20
2022-12-29T13:04:53.449Z,17.13
2022-12-29T13:08:03.886Z,14.10
2022-12-29T13:10:41.820Z,15.00
2022-12-29T13:13:40.279Z,16.80
2022-12-29T13:16:20.259Z,14.48
2022-12-29T13:18:46.740Z,16.48
2022-12-29T13:21:39.022Z,15.52
2022-12-29T13:24:24.659Z,16.75
2022-12-29T13:26:58.863Z,19.95
2022-12-29T13:29:41.472Z,23.52
2022-12-29T13:32:23.997Z,28.20
2022-12-29T13:35:08.539Z,28.13
2022-12-29T13:37:41.178Z,21.90
2022-12-29T13:40:22.261Z,26.15
2022-12-29T13:42:49.719Z,26.45
2022-12-29T13:45:20.124Z,24.52
2022-12-29T13:48:05.199Z,29.15
2022-12-29T13:50:36.277Z,25.98
2022-12-29T13:53:12.132Z,28.08
2022-12-29T13:55:53.175Z,24.67
2022-12-29T13:58:26.163Z,21.20
2022-12-29T14:01:05.620Z,23.33
2022-12-29T14:03:48.989Z,21.30
2022-12-29T14:06:26.387Z,20.63
2022-12-29T14:09:05.597Z,21.15
2022-12-29T14:11:42.052Z,23.10
2022-12-29T14:14:20.581Z,22.60
2022-12-29T14:16:47.188Z,22.23
2022-12-29T14:19:22.040Z,22.58
2022-12-29T14:21:54.866Z,27.90
2022-12-29T14:24:37.931Z,24.20
2022-12-29T14:27:10.493Z,23.58
2022-12-29T14:29:39.555Z,24.58
2022-12-29T14:32:30.078Z,26.70
2022-12-29T14:34:58.740Z,27.15
2022-12-29T14:37:30.570Z,31.63
2022-12-29T14:40:15.565Z,26.58
2022-12-29T14:42:43.242Z,26.73
2022-12-29T14:45:30.197Z,27.75
2022-12-29T14:47:57.657Z,26.58
2022-12-29T14:50:25.404Z,26.90
2022-12-29T14:53:02.899Z,26.15
2022-12-29T14:55:39.566Z,27.15
2022-12-29T14:58:33.367Z,27.55
2022-12-29T15:01:01.354Z,33.20
2022-12-29T15:04:05.205Z,39.13
2022-12-29T15:06:36.834Z,32.85
2022-12-29T15:09:26.663Z,28.13
2022-12-29T15:11:57.524Z,41.97
2022-12-29T15:14:36.961Z,30.35
2022-12-29T15:17:12.478Z,35.73
2022-12-29T15:19:39.524Z,26.05
2022-12-29T15:22:06.935Z,28.23
2022-12-29T15:24:39.366Z,24.75
2022-12-29T15:27:15.373Z,25.55
2022-12-29T15:29:44.736Z,28.52
2022-12-29T15:32:17.654Z,26.90
2022-12-29T15:34:45.552Z,28.00
2022-12-29T15:37:32.952Z,29.45
2022-12-29T15:39:59.778Z,25.80
2022-12-29T15:43:02.415Z,22.73
2022-12-29T15:45:34.925Z,29.02
2022-12-29T15:48:01.746Z,23.73
2022-12-29T15:50:31.649Z,22.00
2022-12-29T15:52:59.082Z,27.17
2022-12-29T15:55:38.251Z,22.33
2022-12-29T15:58:07.065Z,30.20
2022-12-29T16:00:37.374Z,24.13
2022-12-29T16:05:39.689Z,20.98
2022-12-29T16:08:41.086Z,23.50
2022-12-29T16:11:32.949Z,30.13
2022-12-29T16:14:00.425Z,27.83
2022-12-29T16:16:31.303Z,23.27
2022-12-29T16:18:58.695Z,26.83
2022-12-29T16:21:35.572Z,43.78
2022-12-29T16:24:08.049Z,82.07
2022-12-29T16:26:34.573Z,35.20
2022-12-29T16:29:06.075Z,25.38
2022-12-29T16:31:50.107Z,26.60
2022-12-29T16:34:30.983Z,27.65
2022-12-29T16:37:05.628Z,30.02
2022-12-29T16:39:40.496Z,28.63
2022-12-29T16:42:49.051Z,44.05
2022-12-29T16:45:47.171Z,36.83
2022-12-29T16:48:22.965Z,28.70
2022-12-29T16:50:50.132Z,34.95
2022-12-29T16:53:22.781Z,39.00
2022-12-29T16:55:51.030Z,44.55
2022-12-29T16:58:21.485Z,39.33
2022-12-29T17:00:48.341Z,40.97
2022-12-29T17:03:16.117Z,36.92
2022-12-29T17:05:42.633Z,37.05
2022-12-29T17:08:23.839Z,32.63
2022-12-29T17:11:14.834Z,38.83
2022-12-29T17:13:41.454Z,31.40
2022-12-29T17:16:10.770Z,43.10
2022-12-29T17:18:37.554Z,40.00
2022-12-29T17:21:04.128Z,30.50
2022-12-29T17:23:33.476Z,43.00
2022-12-29T17:26:00.167Z,28.33
2022-12-29T17:28:32.496Z,32.95
2022-12-29T17:31:03.795Z,23.52
2022-12-29T17:33:36.254Z,26.30
2022-12-29T17:36:02.770Z,25.40
2022-12-29T17:38:31.745Z,28.70
2022-12-29T17:40:58.791Z,30.25
2022-12-29T17:43:25.355Z,28.50
2022-12-29T17:45:57.621Z,32.85
2022-12-29T17:48:25.003Z,27.35
2022-12-29T17:50:53.767Z,39.67
2022-12-29T17:53:26.788Z,31.60
2022-12-29T17:55:53.480Z,26.40
2022-12-29T17:58:25.330Z,25.10
2022-12-29T18:00:54.578Z,30.60
2022-12-29T18:03:26.858Z,22.08
2022-12-29T18:05:53.728Z,27.83
2022-12-29T18:08:20.171Z,24.17
2022-12-29T18:10:47.426Z,38.08
2022-12-29T18:13:24.255Z,26.25
2022-12-29T18:15:51.477Z,30.90
2022-12-29T18:18:37.208Z,22.60
2022-12-29T18:21:03.634Z,26.98
2022-12-29T18:23:32.676Z,24.95
2022-12-29T18:26:02.024Z,34.60
2022-12-29T18:28:28.590Z,26.20
2022-12-29T18:30:57.996Z,22.50
2022-12-29T18:33:26.777Z,22.83
2022-12-29T18:36:04.128Z,24.55
2022-12-29T18:38:31.406Z,22.88
2022-12-29T18:40:58.991Z,23.10
2022-12-29T18:43:25.624Z,30.77
2022-12-29T18:45:52.351Z,23.02
2022-12-29T18:48:20.739Z,22.05
2022-12-29T18:50:52.153Z,22.45
2022-12-29T18:53:23.748Z,23.23
2022-12-29T18:55:51.282Z,29.13
2022-12-29T18:58:17.977Z,35.40
2022-12-29T19:00:44.634Z,25.02
2022-12-29T19:03:14.507Z,18.48
2022-12-29T19:05:43.382Z,33.72
2022-12-29T19:08:10.558Z,24.45
2022-12-29T19:10:37.835Z,26.90
2022-12-29T19:13:05.044Z,26.98
2022-12-29T19:15:34.022Z,25.25
2022-12-29T19:18:41.774Z,37.13
2022-12-29T19:20:51.193Z,26.92
2022-12-29T19:23:20.961Z,28.80
2022-12-29T19:25:48.447Z,37.40
2022-12-29T19:28:23.587Z,33.92
2022-12-29T19:30:52.776Z,34.13
2022-12-29T19:33:21.623Z,33.50
2022-12-29T19:35:48.679Z,36.92
2022-12-29T19:38:15.411Z,31.95
2022-12-29T19:40:44.294Z,31.20
2022-12-29T19:43:12.267Z,27.17
2022-12-29T19:45:40.491Z,28.77
2022-12-29T19:48:07.860Z,27.65
2022-12-29T19:50:35.067Z,31.10
2022-12-29T19:53:05.351Z,33.80
2022-12-29T19:55:32.792Z,37.90
2022-12-29T19:57:59.285Z,28.60
2022-12-29T20:00:25.754Z,27.60
2022-12-29T20:02:52.515Z,27.85
2022-12-29T20:05:19.614Z,29.10
2022-12-29T20:07:46.289Z,28.38
2022-12-29T20:10:12.769Z,24.55
2022-12-29T20:12:39.221Z,23.15
2022-12-29T20:15:09.748Z,23.20
2022-12-29T20:18:11.696Z,21.40
2022-12-29T20:20:23.289Z,19.92
2022-12-29T20:22:49.776Z,19.85
2022-12-29T20:25:44.265Z,18.40
2022-12-29T20:28:03.371Z,19.40
2022-12-29T20:30:29.795Z,19.67
2022-12-29T20:32:56.356Z,21.63
2022-12-29T20:35:22.920Z,19.58
2022-12-29T20:37:49.711Z,18.30
2022-12-29T20:40:16.331Z,18.70
2022-12-29T20:42:42.761Z,18.92
2022-12-29T20:45:09.721Z,21.30
2022-12-29T20:47:36.364Z,19.27
2022-12-29T20:50:02.920Z,19.48
2022-12-29T20:52:29.357Z,20.90
2022-12-29T20:54:55.749Z,18.65
2022-12-29T20:57:22.421Z,18.55
2022-12-29T20:59:48.887Z,18.70
2022-12-29T21:02:22.584Z,18.27
2022-12-29T21:07:35.717Z,21.35
2022-12-29T21:10:02.363Z,21.48
2022-12-29T21:12:28.749Z,22.38
2022-12-29T21:14:55.224Z,25.63
2022-12-29T21:17:21.713Z,25.15
2022-12-29T21:19:48.670Z,24.48
2022-12-29T21:22:15.147Z,24.65
2022-12-29T21:24:41.566Z,26.17
2022-12-29T21:27:08.179Z,23.58
2022-12-29T21:29:34.622Z,22.48
2022-12-29T21:32:06.301Z,22.27
2022-12-29T21:34:34.599Z,21.58
2022-12-29T21:37:01.175Z,21.77
2022-12-29T21:39:27.750Z,21.48
2022-12-29T21:42:00.004Z,23.70
2022-12-29T21:44:45.827Z,19.75
2022-12-29T21:47:12.286Z,22.95
2022-12-29T21:49:38.755Z,21.33
2022-12-29T21:52:05.365Z,21.23
2022-12-29T21:54:50.146Z,23.30
2022-12-29T21:57:36.382Z,19.60
2022-12-29T22:00:23.838Z,20.08
2022-12-29T22:03:11.367Z,20.42
2022-12-29T22:06:02.445Z,27.88
2022-12-29T22:08:47.137Z,23.52
2022-12-29T22:11:32.203Z,25.63
2022-12-29T22:14:00.269Z,19.65
2022-12-29T22:16:27.168Z,23.48
2022-12-29T22:18:53.693Z,20.88
2022-12-29T22:21:20.169Z,22.88
2022-12-29T22:23:46.624Z,22.27
2022-12-29T22:26:14.603Z,27.50
2022-12-29T22:28:43.855Z,24.92
2022-12-29T22:31:29.047Z,17.90
2022-12-29T22:34:01.277Z,24.38
2022-12-29T22:36:29.095Z,23.67
2022-12-29T22:38:55.663Z,19.13
2022-12-29T22:41:22.656Z,26.10
2022-12-29T22:43:49.091Z,27.05
2022-12-29T22:46:15.651Z,25.75
2022-12-29T22:48:42.109Z,40.75
2022-12-29T22:51:08.648Z,23.55
2022-12-29T22:53:35.208Z,25.95
2022-12-29T22:56:09.443Z,24.00
2022-12-29T22:58:40.137Z,22.92
2022-12-29T23:01:06.741Z,21.98
2022-12-29T23:03:33.320Z,22.92
2022-12-29T23:06:01.596Z,30.13
2022-12-29T23:08:31.486Z,28.10
2022-12-29T23:10:58.111Z,39.17
2022-12-29T23:13:25.673Z,26.25
2022-12-29T23:15:52.379Z,21.60
2022-12-29T23:18:18.810Z,24.63
2022-12-29T23:20:45.396Z,29.45
2022-12-29T23:23:11.873Z,24.10
2022-12-29T23:25:39.193Z,21.67
2022-12-29T23:28:08.158Z,18.00
2022-12-29T23:30:35.195Z,30.23
2022-12-29T23:33:01.753Z,24.73
2022-12-29T23:35:28.237Z,23.58
2022-12-29T23:37:54.623Z,27.30
2022-12-29T23:40:21.061Z,28.83
2022-12-29T23:42:47.556Z,22.92
2022-12-29T23:45:14.057Z,24.92
2022-12-29T23:47:40.495Z,25.98
2022-12-29T23:50:08.640Z,30.73
2022-12-29T23:52:35.186Z,19.38
2022-12-29T23:55:01.627Z,29.42
2022-12-29T23:57:28.057Z,20.83
2022-12-29T23:59:54.470Z,28.55
